sensor_id;sensor_type;location;lat;lon;timestamp;P1;durP1;ratioP1;P2;durP2;ratioP2
69030;SDS011;56083;48.774;8.942;2023-10-08T00:01:43;8.73;;;4.55;;
69030;SDS011;56083;48.774;8.942;2023-10-08T00:04:09;12.32;;;4.93;;
69030;SDS011;56083;48.774;8.942;2023-10-08T00:06:43;16.50;;;4.90;;
69030;SDS011;56083;48.774;8.942;2023-10-08T00:09:10;11.30;;;4.43;;
69030;SDS011;56083;48.774;8.942;2023-10-08T00:11:36;15.52;;;5.05;;
69030;SDS011;56083;48.774;8.942;2023-10-08T00:14:04;9.77;;;4.60;;
69030;SDS011;56083;48.774;8.942;2023-10-08T00:16:37;12.23;;;4.90;;
69030;SDS011;56083;48.774;8.942;2023-10-08T00:19:05;13.65;;;5.45;;
69030;SDS011;56083;48.774;8.942;2023-10-08T00:21:40;13.70;;;4.65;;
69030;SDS011;56083;48.774;8.942;2023-10-08T00:24:09;9.85;;;5.00;;
69030;SDS011;56083;48.774;8.942;2023-10-08T00:26:35;10.93;;;4.53;;
69030;SDS011;56083;48.774;8.942;2023-10-08T00:29:05;9.90;;;5.07;;
69030;SDS011;56083;48.774;8.942;2023-10-08T00:31:40;10.85;;;4.75;;
69030;SDS011;56083;48.774;8.942;2023-10-08T00:34:14;9.45;;;4.38;;
69030;SDS011;56083;48.774;8.942;2023-10-08T00:36:44;10.30;;;4.60;;
69030;SDS011;56083;48.774;8.942;2023-10-08T00:39:14;10.77;;;4.63;;
69030;SDS011;56083;48.774;8.942;2023-10-08T00:41:43;10.80;;;4.90;;
69030;SDS011;56083;48.774;8.942;2023-10-08T00:44:10;8.80;;;4.40;;
69030;SDS011;56083;48.774;8.942;2023-10-08T00:46:51;11.70;;;4.78;;
69030;SDS011;56083;48.774;8.942;2023-10-08T00:49:23;14.77;;;5.30;;
69030;SDS011;56083;48.774;8.942;2023-10-08T00:51:51;12.07;;;5.05;;
69030;SDS011;56083;48.774;8.942;2023-10-08T00:57:18;15.07;;;5.15;;
69030;SDS011;56083;48.774;8.942;2023-10-08T00:59:46;12.70;;;4.68;;
69030;SDS011;56083;48.774;8.942;2023-10-08T01:02:21;12.13;;;5.07;;
69030;SDS011;56083;48.774;8.942;2023-10-08T01:05:01;16.60;;;5.18;;
69030;SDS011;56083;48.774;8.942;2023-10-08T01:07:27;10.93;;;4.88;;
69030;SDS011;56083;48.774;8.942;2023-10-08T01:09:55;10.57;;;4.93;;
69030;SDS011;56083;48.774;8.942;2023-10-08T01:12:25;12.43;;;4.88;;
69030;SDS011;56083;48.774;8.942;2023-10-08T01:15:01;16.23;;;5.72;;
69030;SDS011;56083;48.774;8.942;2023-10-08T01:17:41;12.95;;;4.85;;
69030;SDS011;56083;48.774;8.942;2023-10-08T01:20:27;9.43;;;4.35;;
69030;SDS011;56083;48.774;8.942;2023-10-08T01:23:03;11.20;;;4.95;;
69030;SDS011;56083;48.774;8.942;2023-10-08T01:25:42;12.70;;;4.72;;
69030;SDS011;56083;48.774;8.942;2023-10-08T01:28:08;11.90;;;4.72;;
69030;SDS011;56083;48.774;8.942;2023-10-08T01:30:56;16.35;;;5.05;;
69030;SDS011;56083;48.774;8.942;2023-10-08T01:33:31;14.75;;;4.93;;
69030;SDS011;56083;48.774;8.942;2023-10-08T01:36:02;13.60;;;4.85;;
69030;SDS011;56083;48.774;8.942;2023-10-08T01:38:29;15.82;;;4.75;;
69030;SDS011;56083;48.774;8.942;2023-10-08T01:40:56;13.45;;;4.88;;
69030;SDS011;56083;48.774;8.942;2023-10-08T01:43:22;16.33;;;4.85;;
69030;SDS011;56083;48.774;8.942;2023-10-08T01:45:47;10.15;;;4.80;;
69030;SDS011;56083;48.774;8.942;2023-10-08T01:48:17;12.18;;;4.50;;
69030;SDS011;56083;48.774;8.942;2023-10-08T01:50:45;14.55;;;5.28;;
69030;SDS011;56083;48.774;8.942;2023-10-08T01:53:14;11.55;;;4.75;;
69030;SDS011;56083;48.774;8.942;2023-10-08T01:55:41;10.98;;;4.55;;
69030;SDS011;56083;48.774;8.942;2023-10-08T01:58:17;12.93;;;5.15;;
69030;SDS011;56083;48.774;8.942;2023-10-08T02:00:43;15.60;;;5.35;;
69030;SDS011;56083;48.774;8.942;2023-10-08T02:03:13;10.43;;;4.63;;
69030;SDS011;56083;48.774;8.942;2023-10-08T02:05:47;10.15;;;4.22;;
69030;SDS011;56083;48.774;8.942;2023-10-08T02:08:13;12.13;;;4.80;;
69030;SDS011;56083;48.774;8.942;2023-10-08T02:10:42;12.25;;;5.10;;
69030;SDS011;56083;48.774;8.942;2023-10-08T02:13:09;12.20;;;4.82;;
69030;SDS011;56083;48.774;8.942;2023-10-08T02:15:35;16.73;;;5.07;;
69030;SDS011;56083;48.774;8.942;2023-10-08T02:18:02;15.73;;;5.38;;
69030;SDS011;56083;48.774;8.942;2023-10-08T02:20:29;10.57;;;5.00;;
69030;SDS011;56083;48.774;8.942;2023-10-08T02:22:54;14.32;;;4.95;;
69030;SDS011;56083;48.774;8.942;2023-10-08T02:25:20;8.52;;;4.45;;
69030;SDS011;56083;48.774;8.942;2023-10-08T02:27:47;16.20;;;4.63;;
69030;SDS011;56083;48.774;8.942;2023-10-08T02:30:13;16.27;;;4.70;;
69030;SDS011;56083;48.774;8.942;2023-10-08T02:32:39;16.55;;;5.22;;
69030;SDS011;56083;48.774;8.942;2023-10-08T02:35:24;12.18;;;4.53;;
69030;SDS011;56083;48.774;8.942;2023-10-08T02:37:52;12.95;;;5.05;;
69030;SDS011;56083;48.774;8.942;2023-10-08T02:40:19;16.08;;;5.50;;
69030;SDS011;56083;48.774;8.942;2023-10-08T02:42:52;10.52;;;4.70;;
69030;SDS011;56083;48.774;8.942;2023-10-08T02:45:26;9.98;;;4.80;;
69030;SDS011;56083;48.774;8.942;2023-10-08T02:47:53;14.35;;;5.30;;
69030;SDS011;56083;48.774;8.942;2023-10-08T02:50:21;16.65;;;4.95;;
69030;SDS011;56083;48.774;8.942;2023-10-08T02:52:50;15.13;;;5.20;;
69030;SDS011;56083;48.774;8.942;2023-10-08T02:55:17;11.73;;;4.47;;
69030;SDS011;56083;48.774;8.942;2023-10-08T02:58:09;9.25;;;4.95;;
69030;SDS011;56083;48.774;8.942;2023-10-08T03:00:44;12.95;;;4.80;;
69030;SDS011;56083;48.774;8.942;2023-10-08T03:03:16;11.00;;;5.05;;
69030;SDS011;56083;48.774;8.942;2023-10-08T03:05:44;11.35;;;4.57;;
69030;SDS011;56083;48.774;8.942;2023-10-08T03:08:17;15.18;;;4.82;;
69030;SDS011;56083;48.774;8.942;2023-10-08T03:10:47;12.20;;;4.88;;
69030;SDS011;56083;48.774;8.942;2023-10-08T03:13:14;16.98;;;4.80;;
69030;SDS011;56083;48.774;8.942;2023-10-08T03:15:41;11.07;;;4.47;;
69030;SDS011;56083;48.774;8.942;2023-10-08T03:18:33;14.70;;;5.18;;
69030;SDS011;56083;48.774;8.942;2023-10-08T03:21:06;11.25;;;5.35;;
69030;SDS011;56083;48.774;8.942;2023-10-08T03:23:48;8.88;;;4.70;;
69030;SDS011;56083;48.774;8.942;2023-10-08T03:26:16;10.35;;;4.93;;
69030;SDS011;56083;48.774;8.942;2023-10-08T03:28:57;10.60;;;4.40;;
69030;SDS011;56083;48.774;8.942;2023-10-08T03:31:24;14.95;;;5.35;;
69030;SDS011;56083;48.774;8.942;2023-10-08T03:34:08;14.30;;;5.47;;
69030;SDS011;56083;48.774;8.942;2023-10-08T03:36:38;11.80;;;5.10;;
69030;SDS011;56083;48.774;8.942;2023-10-08T03:39:12;11.68;;;4.82;;
69030;SDS011;56083;48.774;8.942;2023-10-08T03:41:42;13.60;;;5.55;;
69030;SDS011;56083;48.774;8.942;2023-10-08T03:44:16;10.85;;;5.35;;
69030;SDS011;56083;48.774;8.942;2023-10-08T03:46:43;15.50;;;5.32;;
69030;SDS011;56083;48.774;8.942;2023-10-08T03:49:14;16.33;;;5.15;;
69030;SDS011;56083;48.774;8.942;2023-10-08T03:51:46;11.88;;;4.85;;
69030;SDS011;56083;48.774;8.942;2023-10-08T03:54:13;12.00;;;5.05;;
69030;SDS011;56083;48.774;8.942;2023-10-08T03:56:43;16.58;;;4.95;;
69030;SDS011;56083;48.774;8.942;2023-10-08T03:59:17;10.30;;;4.75;;
69030;SDS011;56083;48.774;8.942;2023-10-08T04:01:55;11.27;;;4.95;;
69030;SDS011;56083;48.774;8.942;2023-10-08T04:04:35;10.88;;;4.78;;
69030;SDS011;56083;48.774;8.942;2023-10-08T04:07:18;9.95;;;4.70;;
69030;SDS011;56083;48.774;8.942;2023-10-08T04:10:03;12.80;;;4.80;;
69030;SDS011;56083;48.774;8.942;2023-10-08T04:12:35;11.77;;;4.57;;
69030;SDS011;56083;48.774;8.942;2023-10-08T04:15:04;16.10;;;5.05;;
69030;SDS011;56083;48.774;8.942;2023-10-08T04:17:32;12.30;;;5.30;;
69030;SDS011;56083;48.774;8.942;2023-10-08T04:20:09;14.30;;;5.75;;
69030;SDS011;56083;48.774;8.942;2023-10-08T04:23:12;14.88;;;4.90;;
69030;SDS011;56083;48.774;8.942;2023-10-08T04:25:47;16.23;;;4.82;;
69030;SDS011;56083;48.774;8.942;2023-10-08T04:28:19;12.77;;;5.25;;
69030;SDS011;56083;48.774;8.942;2023-10-08T04:30:47;14.43;;;4.93;;
69030;SDS011;56083;48.774;8.942;2023-10-08T04:33:13;13.88;;;5.20;;
69030;SDS011;56083;48.774;8.942;2023-10-08T04:35:40;12.80;;;5.25;;
69030;SDS011;56083;48.774;8.942;2023-10-08T04:38:13;12.35;;;5.07;;
69030;SDS011;56083;48.774;8.942;2023-10-08T04:40:42;13.65;;;4.47;;
69030;SDS011;56083;48.774;8.942;2023-10-08T04:43:23;10.52;;;4.75;;
69030;SDS011;56083;48.774;8.942;2023-10-08T04:45:58;11.52;;;4.57;;
69030;SDS011;56083;48.774;8.942;2023-10-08T04:48:29;16.80;;;5.32;;
69030;SDS011;56083;48.774;8.942;2023-10-08T04:50:57;16.38;;;5.07;;
69030;SDS011;56083;48.774;8.942;2023-10-08T04:53:28;15.10;;;5.03;;
69030;SDS011;56083;48.774;8.942;2023-10-08T04:56:05;16.33;;;5.75;;
69030;SDS011;56083;48.774;8.942;2023-10-08T04:58:39;11.57;;;5.47;;
69030;SDS011;56083;48.774;8.942;2023-10-08T05:01:06;14.48;;;5.13;;
69030;SDS011;56083;48.774;8.942;2023-10-08T05:03:51;12.52;;;4.65;;
69030;SDS011;56083;48.774;8.942;2023-10-08T05:06:21;17.67;;;5.05;;
69030;SDS011;56083;48.774;8.942;2023-10-08T05:09:13;15.65;;;5.22;;
69030;SDS011;56083;48.774;8.942;2023-10-08T05:11:45;23.23;;;4.95;;
69030;SDS011;56083;48.774;8.942;2023-10-08T05:14:22;10.77;;;4.72;;
69030;SDS011;56083;48.774;8.942;2023-10-08T05:17:01;17.27;;;5.10;;
69030;SDS011;56083;48.774;8.942;2023-10-08T05:19:47;18.90;;;4.82;;
69030;SDS011;56083;48.774;8.942;2023-10-08T05:22:46;14.70;;;4.82;;
69030;SDS011;56083;48.774;8.942;2023-10-08T05:25:20;14.82;;;5.47;;
69030;SDS011;56083;48.774;8.942;2023-10-08T05:27:46;14.65;;;5.05;;
69030;SDS011;56083;48.774;8.942;2023-10-08T05:30:18;13.50;;;4.95;;
69030;SDS011;56083;48.774;8.942;2023-10-08T05:33:06;12.10;;;4.70;;
69030;SDS011;56083;48.774;8.942;2023-10-08T05:35:42;11.40;;;4.90;;
69030;SDS011;56083;48.774;8.942;2023-10-08T05:38:10;15.45;;;4.78;;
69030;SDS011;56083;48.774;8.942;2023-10-08T05:40:56;18.23;;;5.70;;
69030;SDS011;56083;48.774;8.942;2023-10-08T05:51:29;10.77;;;4.55;;
69030;SDS011;56083;48.774;8.942;2023-10-08T05:57:10;9.98;;;4.75;;
69030;SDS011;56083;48.774;8.942;2023-10-08T05:59:36;13.85;;;4.78;;
69030;SDS011;56083;48.774;8.942;2023-10-08T06:02:30;15.45;;;4.82;;
69030;SDS011;56083;48.774;8.942;2023-10-08T06:05:06;13.52;;;4.88;;
69030;SDS011;56083;48.774;8.942;2023-10-08T06:10:26;12.80;;;4.47;;
69030;SDS011;56083;48.774;8.942;2023-10-08T06:15:50;17.23;;;4.53;;
69030;SDS011;56083;48.774;8.942;2023-10-08T06:18:20;16.15;;;4.57;;
69030;SDS011;56083;48.774;8.942;2023-10-08T06:20:53;18.77;;;5.05;;
69030;SDS011;56083;48.774;8.942;2023-10-08T06:23:33;12.13;;;4.65;;
69030;SDS011;56083;48.774;8.942;2023-10-08T06:26:01;13.90;;;4.93;;
69030;SDS011;56083;48.774;8.942;2023-10-08T06:28:40;12.48;;;4.78;;
69030;SDS011;56083;48.774;8.942;2023-10-08T06:31:06;18.30;;;5.15;;
69030;SDS011;56083;48.774;8.942;2023-10-08T06:33:42;19.30;;;4.93;;
69030;SDS011;56083;48.774;8.942;2023-10-08T06:36:09;15.90;;;5.20;;
69030;SDS011;56083;48.774;8.942;2023-10-08T06:38:41;15.30;;;4.88;;
69030;SDS011;56083;48.774;8.942;2023-10-08T06:41:13;17.02;;;5.18;;
69030;SDS011;56083;48.774;8.942;2023-10-08T06:43:42;29.70;;;5.05;;
69030;SDS011;56083;48.774;8.942;2023-10-08T06:46:16;18.25;;;4.78;;
69030;SDS011;56083;48.774;8.942;2023-10-08T06:48:46;16.92;;;4.80;;
69030;SDS011;56083;48.774;8.942;2023-10-08T06:51:14;17.50;;;5.18;;
69030;SDS011;56083;48.774;8.942;2023-10-08T06:53:43;11.43;;;4.72;;
69030;SDS011;56083;48.774;8.942;2023-10-08T06:56:13;23.45;;;5.32;;
69030;SDS011;56083;48.774;8.942;2023-10-08T06:58:40;22.40;;;5.15;;
69030;SDS011;56083;48.774;8.942;2023-10-08T07:01:13;13.35;;;4.88;;
69030;SDS011;56083;48.774;8.942;2023-10-08T07:03:46;18.65;;;4.75;;
69030;SDS011;56083;48.774;8.942;2023-10-08T07:06:14;17.45;;;4.70;;
69030;SDS011;56083;48.774;8.942;2023-10-08T07:08:51;14.25;;;5.20;;
69030;SDS011;56083;48.774;8.942;2023-10-08T07:11:21;15.15;;;5.03;;
69030;SDS011;56083;48.774;8.942;2023-10-08T07:13:47;12.38;;;4.90;;
69030;SDS011;56083;48.774;8.942;2023-10-08T07:16:13;13.38;;;4.70;;
69030;SDS011;56083;48.774;8.942;2023-10-08T07:18:42;20.95;;;4.75;;
69030;SDS011;56083;48.774;8.942;2023-10-08T07:21:13;23.85;;;4.90;;
69030;SDS011;56083;48.774;8.942;2023-10-08T07:23:39;13.73;;;5.25;;
69030;SDS011;56083;48.774;8.942;2023-10-08T07:26:28;19.10;;;4.82;;
69030;SDS011;56083;48.774;8.942;2023-10-08T07:29:04;17.60;;;4.72;;
69030;SDS011;56083;48.774;8.942;2023-10-08T07:31:34;13.32;;;4.90;;
69030;SDS011;56083;48.774;8.942;2023-10-08T07:34:01;15.13;;;4.32;;
69030;SDS011;56083;48.774;8.942;2023-10-08T07:36:46;15.55;;;4.60;;
69030;SDS011;56083;48.774;8.942;2023-10-08T07:39:16;14.32;;;4.40;;
69030;SDS011;56083;48.774;8.942;2023-10-08T07:41:52;16.35;;;4.70;;
69030;SDS011;56083;48.774;8.942;2023-10-08T07:44:22;15.60;;;4.60;;
69030;SDS011;56083;48.774;8.942;2023-10-08T07:46:48;16.17;;;4.80;;
69030;SDS011;56083;48.774;8.942;2023-10-08T07:49:16;11.15;;;4.38;;
69030;SDS011;56083;48.774;8.942;2023-10-08T07:51:42;14.68;;;4.63;;
69030;SDS011;56083;48.774;8.942;2023-10-08T07:56:44;17.05;;;5.10;;
69030;SDS011;56083;48.774;8.942;2023-10-08T07:59:11;16.27;;;5.00;;
69030;SDS011;56083;48.774;8.942;2023-10-08T08:01:40;11.98;;;4.57;;
69030;SDS011;56083;48.774;8.942;2023-10-08T08:04:07;16.92;;;4.93;;
69030;SDS011;56083;48.774;8.942;2023-10-08T08:06:46;13.20;;;4.82;;
69030;SDS011;56083;48.774;8.942;2023-10-08T08:09:15;12.70;;;4.65;;
69030;SDS011;56083;48.774;8.942;2023-10-08T08:11:48;15.98;;;6.00;;
69030;SDS011;56083;48.774;8.942;2023-10-08T08:14:14;17.67;;;5.85;;
69030;SDS011;56083;48.774;8.942;2023-10-08T08:16:42;14.68;;;4.82;;
69030;SDS011;56083;48.774;8.942;2023-10-08T08:19:12;12.70;;;4.28;;
69030;SDS011;56083;48.774;8.942;2023-10-08T08:21:40;16.48;;;4.75;;
69030;SDS011;56083;48.774;8.942;2023-10-08T08:24:10;11.43;;;4.70;;
69030;SDS011;56083;48.774;8.942;2023-10-08T08:26:50;18.65;;;4.90;;
69030;SDS011;56083;48.774;8.942;2023-10-08T08:29:48;14.68;;;4.78;;
69030;SDS011;56083;48.774;8.942;2023-10-08T08:32:13;12.88;;;4.47;;
69030;SDS011;56083;48.774;8.942;2023-10-08T08:34:44;15.80;;;4.32;;
69030;SDS011;56083;48.774;8.942;2023-10-08T08:37:11;13.88;;;4.55;;
69030;SDS011;56083;48.774;8.942;2023-10-08T08:39:37;9.82;;;4.68;;
69030;SDS011;56083;48.774;8.942;2023-10-08T08:42:03;16.25;;;4.15;;
69030;SDS011;56083;48.774;8.942;2023-10-08T08:44:34;12.55;;;4.30;;
69030;SDS011;56083;48.774;8.942;2023-10-08T08:47:04;12.38;;;4.35;;
69030;SDS011;56083;48.774;8.942;2023-10-08T08:49:35;16.95;;;4.72;;
69030;SDS011;56083;48.774;8.942;2023-10-08T08:52:02;11.23;;;4.38;;
69030;SDS011;56083;48.774;8.942;2023-10-08T08:54:29;13.68;;;4.38;;
69030;SDS011;56083;48.774;8.942;2023-10-08T08:56:55;12.77;;;4.03;;
69030;SDS011;56083;48.774;8.942;2023-10-08T08:59:27;17.33;;;4.32;;
69030;SDS011;56083;48.774;8.942;2023-10-08T09:01:56;13.15;;;4.40;;
69030;SDS011;56083;48.774;8.942;2023-10-08T09:04:33;13.32;;;4.40;;
69030;SDS011;56083;48.774;8.942;2023-10-08T09:07:02;12.27;;;4.63;;
69030;SDS011;56083;48.774;8.942;2023-10-08T09:09:32;10.13;;;4.28;;
69030;SDS011;56083;48.774;8.942;2023-10-08T09:11:58;13.50;;;4.47;;
69030;SDS011;56083;48.774;8.942;2023-10-08T09:14:25;11.93;;;4.63;;
69030;SDS011;56083;48.774;8.942;2023-10-08T09:16:52;11.75;;;4.90;;
69030;SDS011;56083;48.774;8.942;2023-10-08T09:19:21;11.05;;;4.88;;
69030;SDS011;56083;48.774;8.942;2023-10-08T09:22:03;11.90;;;4.47;;
69030;SDS011;56083;48.774;8.942;2023-10-08T09:24:30;9.57;;;4.25;;
69030;SDS011;56083;48.774;8.942;2023-10-08T09:27:01;13.18;;;4.82;;
69030;SDS011;56083;48.774;8.942;2023-10-08T09:29:28;10.95;;;4.70;;
69030;SDS011;56083;48.774;8.942;2023-10-08T09:31:54;13.32;;;4.18;;
69030;SDS011;56083;48.774;8.942;2023-10-08T09:34:30;13.13;;;4.57;;
69030;SDS011;56083;48.774;8.942;2023-10-08T09:36:57;9.73;;;4.28;;
69030;SDS011;56083;48.774;8.942;2023-10-08T09:39:28;10.77;;;4.55;;
69030;SDS011;56083;48.774;8.942;2023-10-08T09:41:59;19.98;;;4.90;;
69030;SDS011;56083;48.774;8.942;2023-10-08T09:44:27;14.65;;;4.90;;
69030;SDS011;56083;48.774;8.942;2023-10-08T09:46:57;8.95;;;4.15;;
69030;SDS011;56083;48.774;8.942;2023-10-08T09:49:38;14.10;;;4.88;;
69030;SDS011;56083;48.774;8.942;2023-10-08T09:52:08;14.77;;;4.55;;
69030;SDS011;56083;48.774;8.942;2023-10-08T09:54:53;9.70;;;4.32;;
69030;SDS011;56083;48.774;8.942;2023-10-08T09:57:25;9.40;;;4.32;;
69030;SDS011;56083;48.774;8.942;2023-10-08T09:59:52;13.73;;;4.72;;
69030;SDS011;56083;48.774;8.942;2023-10-08T10:02:18;15.82;;;4.65;;
69030;SDS011;56083;48.774;8.942;2023-10-08T10:04:49;16.20;;;4.65;;
69030;SDS011;56083;48.774;8.942;2023-10-08T10:07:18;16.90;;;4.72;;
69030;SDS011;56083;48.774;8.942;2023-10-08T10:09:46;14.63;;;4.90;;
69030;SDS011;56083;48.774;8.942;2023-10-08T10:12:18;17.58;;;5.07;;
69030;SDS011;56083;48.774;8.942;2023-10-08T10:14:50;20.02;;;4.75;;
69030;SDS011;56083;48.774;8.942;2023-10-08T10:17:20;13.68;;;4.90;;
69030;SDS011;56083;48.774;8.942;2023-10-08T10:20:11;17.20;;;4.88;;
69030;SDS011;56083;48.774;8.942;2023-10-08T10:22:38;18.60;;;4.50;;
69030;SDS011;56083;48.774;8.942;2023-10-08T10:25:07;14.52;;;4.32;;
69030;SDS011;56083;48.774;8.942;2023-10-08T10:28:28;14.55;;;4.50;;
69030;SDS011;56083;48.774;8.942;2023-10-08T10:30:33;12.10;;;4.60;;
69030;SDS011;56083;48.774;8.942;2023-10-08T10:33:02;17.98;;;4.75;;
69030;SDS011;56083;48.774;8.942;2023-10-08T10:35:30;13.73;;;5.07;;
69030;SDS011;56083;48.774;8.942;2023-10-08T10:37:57;12.30;;;4.68;;
69030;SDS011;56083;48.774;8.942;2023-10-08T10:40:28;11.05;;;4.25;;
69030;SDS011;56083;48.774;8.942;2023-10-08T10:43:04;16.33;;;4.90;;
69030;SDS011;56083;48.774;8.942;2023-10-08T10:45:34;20.90;;;4.65;;
69030;SDS011;56083;48.774;8.942;2023-10-08T10:48:01;13.90;;;4.82;;
69030;SDS011;56083;48.774;8.942;2023-10-08T10:50:48;16.98;;;4.88;;
69030;SDS011;56083;48.774;8.942;2023-10-08T10:53:33;15.20;;;5.50;;
69030;SDS011;56083;48.774;8.942;2023-10-08T10:56:24;21.63;;;5.22;;
69030;SDS011;56083;48.774;8.942;2023-10-08T10:58:59;20.70;;;5.22;;
69030;SDS011;56083;48.774;8.942;2023-10-08T11:01:31;14.27;;;5.25;;
69030;SDS011;56083;48.774;8.942;2023-10-08T11:04:10;19.58;;;5.50;;
69030;SDS011;56083;48.774;8.942;2023-10-08T11:06:41;20.05;;;5.50;;
69030;SDS011;56083;48.774;8.942;2023-10-08T11:09:10;21.67;;;5.32;;
69030;SDS011;56083;48.774;8.942;2023-10-08T11:11:56;22.92;;;5.32;;
69030;SDS011;56083;48.774;8.942;2023-10-08T11:14:25;19.40;;;5.95;;
69030;SDS011;56083;48.774;8.942;2023-10-08T11:16:52;22.88;;;5.72;;
69030;SDS011;56083;48.774;8.942;2023-10-08T11:19:19;30.08;;;6.25;;
69030;SDS011;56083;48.774;8.942;2023-10-08T11:21:51;21.70;;;5.85;;
69030;SDS011;56083;48.774;8.942;2023-10-08T11:24:27;20.80;;;5.43;;
69030;SDS011;56083;48.774;8.942;2023-10-08T11:26:54;15.55;;;5.47;;
69030;SDS011;56083;48.774;8.942;2023-10-08T11:29:31;23.63;;;5.40;;
69030;SDS011;56083;48.774;8.942;2023-10-08T11:31:58;25.67;;;5.97;;
69030;SDS011;56083;48.774;8.942;2023-10-08T11:34:31;20.55;;;5.47;;
69030;SDS011;56083;48.774;8.942;2023-10-08T11:37:01;29.00;;;5.47;;
69030;SDS011;56083;48.774;8.942;2023-10-08T11:39:38;19.75;;;5.72;;
69030;SDS011;56083;48.774;8.942;2023-10-08T11:42:10;20.35;;;5.60;;
69030;SDS011;56083;48.774;8.942;2023-10-08T11:44:55;20.50;;;5.47;;
69030;SDS011;56083;48.774;8.942;2023-10-08T11:47:24;18.48;;;5.90;;
69030;SDS011;56083;48.774;8.942;2023-10-08T11:49:56;29.58;;;5.97;;
69030;SDS011;56083;48.774;8.942;2023-10-08T11:52:41;25.85;;;5.88;;
69030;SDS011;56083;48.774;8.942;2023-10-08T11:55:09;25.85;;;5.85;;
69030;SDS011;56083;48.774;8.942;2023-10-08T11:57:35;20.20;;;5.88;;
69030;SDS011;56083;48.774;8.942;2023-10-08T12:00:04;24.02;;;6.00;;
69030;SDS011;56083;48.774;8.942;2023-10-08T12:02:44;21.98;;;5.85;;
69030;SDS011;56083;48.774;8.942;2023-10-08T12:05:11;22.35;;;6.03;;
69030;SDS011;56083;48.774;8.942;2023-10-08T12:07:44;25.80;;;6.18;;
69030;SDS011;56083;48.774;8.942;2023-10-08T12:10:16;25.38;;;5.50;;
69030;SDS011;56083;48.774;8.942;2023-10-08T12:12:47;28.70;;;6.78;;
69030;SDS011;56083;48.774;8.942;2023-10-08T12:17:48;29.05;;;6.07;;
69030;SDS011;56083;48.774;8.942;2023-10-08T12:20:33;28.10;;;6.03;;
69030;SDS011;56083;48.774;8.942;2023-10-08T12:23:06;24.60;;;5.93;;
69030;SDS011;56083;48.774;8.942;2023-10-08T12:25:36;17.50;;;5.40;;
69030;SDS011;56083;48.774;8.942;2023-10-08T12:28:02;25.42;;;5.60;;
69030;SDS011;56083;48.774;8.942;2023-10-08T12:30:32;25.52;;;5.28;;
69030;SDS011;56083;48.774;8.942;2023-10-08T12:33:06;28.65;;;6.20;;
69030;SDS011;56083;48.774;8.942;2023-10-08T12:35:32;25.35;;;5.30;;
69030;SDS011;56083;48.774;8.942;2023-10-08T12:37:58;23.13;;;5.80;;
69030;SDS011;56083;48.774;8.942;2023-10-08T12:40:23;22.98;;;5.35;;
69030;SDS011;56083;48.774;8.942;2023-10-08T12:42:52;22.10;;;5.90;;
69030;SDS011;56083;48.774;8.942;2023-10-08T12:45:19;31.75;;;5.63;;
69030;SDS011;56083;48.774;8.942;2023-10-08T12:50:15;27.63;;;5.65;;
69030;SDS011;56083;48.774;8.942;2023-10-08T12:52:45;34.28;;;5.15;;
69030;SDS011;56083;48.774;8.942;2023-10-08T12:55:18;26.70;;;5.70;;
69030;SDS011;56083;48.774;8.942;2023-10-08T12:57:49;29.98;;;5.45;;
69030;SDS011;56083;48.774;8.942;2023-10-08T13:00:20;28.88;;;5.80;;
69030;SDS011;56083;48.774;8.942;2023-10-08T13:02:49;26.85;;;5.80;;
69030;SDS011;56083;48.774;8.942;2023-10-08T13:05:19;26.40;;;5.40;;
69030;SDS011;56083;48.774;8.942;2023-10-08T13:07:53;28.25;;;5.65;;
69030;SDS011;56083;48.774;8.942;2023-10-08T13:10:19;31.17;;;5.72;;
69030;SDS011;56083;48.774;8.942;2023-10-08T13:12:47;25.08;;;5.07;;
69030;SDS011;56083;48.774;8.942;2023-10-08T13:15:13;19.17;;;5.38;;
69030;SDS011;56083;48.774;8.942;2023-10-08T13:17:38;27.00;;;5.10;;
69030;SDS011;56083;48.774;8.942;2023-10-08T13:20:08;26.65;;;4.95;;
69030;SDS011;56083;48.774;8.942;2023-10-08T13:22:37;19.48;;;4.93;;
69030;SDS011;56083;48.774;8.942;2023-10-08T13:25:03;29.02;;;5.38;;
69030;SDS011;56083;48.774;8.942;2023-10-08T13:27:29;26.20;;;5.50;;
69030;SDS011;56083;48.774;8.942;2023-10-08T13:29:55;27.88;;;5.65;;
69030;SDS011;56083;48.774;8.942;2023-10-08T13:32:21;23.67;;;4.95;;
69030;SDS011;56083;48.774;8.942;2023-10-08T13:34:48;22.05;;;5.47;;
69030;SDS011;56083;48.774;8.942;2023-10-08T13:37:14;23.02;;;4.82;;
69030;SDS011;56083;48.774;8.942;2023-10-08T13:39:40;21.52;;;5.05;;
69030;SDS011;56083;48.774;8.942;2023-10-08T13:42:06;24.65;;;5.20;;
69030;SDS011;56083;48.774;8.942;2023-10-08T13:44:32;32.80;;;5.63;;
69030;SDS011;56083;48.774;8.942;2023-10-08T13:46:59;25.13;;;5.07;;
69030;SDS011;56083;48.774;8.942;2023-10-08T13:49:30;24.65;;;5.60;;
69030;SDS011;56083;48.774;8.942;2023-10-08T13:51:57;29.88;;;5.75;;
69030;SDS011;56083;48.774;8.942;2023-10-08T13:54:23;26.98;;;5.10;;
69030;SDS011;56083;48.774;8.942;2023-10-08T13:56:53;25.27;;;5.50;;
69030;SDS011;56083;48.774;8.942;2023-10-08T13:59:20;32.05;;;5.93;;
69030;SDS011;56083;48.774;8.942;2023-10-08T14:01:49;24.65;;;5.78;;
69030;SDS011;56083;48.774;8.942;2023-10-08T14:04:20;23.50;;;5.90;;
69030;SDS011;56083;48.774;8.942;2023-10-08T14:06:51;29.05;;;5.90;;
69030;SDS011;56083;48.774;8.942;2023-10-08T14:09:17;25.17;;;4.93;;
69030;SDS011;56083;48.774;8.942;2023-10-08T14:12:02;22.80;;;5.10;;
69030;SDS011;56083;48.774;8.942;2023-10-08T14:14:28;21.73;;;5.22;;
69030;SDS011;56083;48.774;8.942;2023-10-08T14:16:59;21.17;;;5.82;;
69030;SDS011;56083;48.774;8.942;2023-10-08T14:19:31;23.70;;;5.25;;
69030;SDS011;56083;48.774;8.942;2023-10-08T14:22:20;25.00;;;5.60;;
69030;SDS011;56083;48.774;8.942;2023-10-08T14:24:47;22.45;;;5.28;;
69030;SDS011;56083;48.774;8.942;2023-10-08T14:27:23;19.52;;;5.35;;
69030;SDS011;56083;48.774;8.942;2023-10-08T14:29:58;19.77;;;5.40;;
69030;SDS011;56083;48.774;8.942;2023-10-08T14:32:29;22.40;;;6.03;;
69030;SDS011;56083;48.774;8.942;2023-10-08T14:34:57;18.33;;;5.25;;
69030;SDS011;56083;48.774;8.942;2023-10-08T14:37:23;31.38;;;6.03;;
69030;SDS011;56083;48.774;8.942;2023-10-08T14:40:07;19.92;;;5.70;;
69030;SDS011;56083;48.774;8.942;2023-10-08T14:42:51;22.92;;;5.60;;
69030;SDS011;56083;48.774;8.942;2023-10-08T14:45:24;25.73;;;6.57;;
69030;SDS011;56083;48.774;8.942;2023-10-08T14:47:52;24.27;;;5.88;;
69030;SDS011;56083;48.774;8.942;2023-10-08T14:50:21;29.02;;;5.90;;
69030;SDS011;56083;48.774;8.942;2023-10-08T14:52:48;37.58;;;6.25;;
69030;SDS011;56083;48.774;8.942;2023-10-08T14:55:14;21.40;;;5.40;;
69030;SDS011;56083;48.774;8.942;2023-10-08T14:57:41;32.10;;;6.03;;
69030;SDS011;56083;48.774;8.942;2023-10-08T15:00:07;27.27;;;6.10;;
69030;SDS011;56083;48.774;8.942;2023-10-08T15:02:34;25.80;;;5.63;;
69030;SDS011;56083;48.774;8.942;2023-10-08T15:04:59;28.98;;;5.57;;
69030;SDS011;56083;48.774;8.942;2023-10-08T15:07:28;28.67;;;5.93;;
69030;SDS011;56083;48.774;8.942;2023-10-08T15:09:54;25.13;;;6.07;;
69030;SDS011;56083;48.774;8.942;2023-10-08T15:12:23;26.75;;;6.05;;
69030;SDS011;56083;48.774;8.942;2023-10-08T15:14:50;28.67;;;5.90;;
69030;SDS011;56083;48.774;8.942;2023-10-08T15:17:19;26.00;;;6.00;;
69030;SDS011;56083;48.774;8.942;2023-10-08T15:19:44;20.67;;;6.03;;
69030;SDS011;56083;48.774;8.942;2023-10-08T15:22:13;32.28;;;6.05;;
69030;SDS011;56083;48.774;8.942;2023-10-08T15:24:41;30.50;;;5.60;;
69030;SDS011;56083;48.774;8.942;2023-10-08T15:27:08;25.77;;;5.93;;
69030;SDS011;56083;48.774;8.942;2023-10-08T15:29:35;26.55;;;5.88;;